createdAt,value
2022-09-04T00:01:38.788Z,8.18
2022-09-04T00:04:20.914Z,9.52
2022-09-04T00:06:58.032Z,9.63
2022-09-04T00:09:34.247Z,10.63
2022-09-04T00:12:08.861Z,10.20
2022-09-04T00:14:44.561Z,9.70
2022-09-04T00:17:19.021Z,9.57
2022-09-04T00:19:56.415Z,8.10
2022-09-04T00:22:33.900Z,9.40
2022-09-04T00:25:10.573Z,8.73
2022-09-04T00:27:45.419Z,9.43
2022-09-04T00:30:20.494Z,7.63
2022-09-04T00:32:56.098Z,10.63
2022-09-04T00:35:31.588Z,9.82
2022-09-04T00:38:04.852Z,9.13
2022-09-04T00:40:35.893Z,7.80
2022-09-04T00:43:48.654Z,10.13
2022-09-04T00:46:42.647Z,9.93
2022-09-04T00:49:24.443Z,8.70
2022-09-04T00:52:03.667Z,10.13
2022-09-04T00:54:51.725Z,10.52
2022-09-04T00:58:01.542Z,9.45
2022-09-04T01:00:30.927Z,9.50
2022-09-04T01:03:32.083Z,10.32
2022-09-04T01:06:13.094Z,9.10
2022-09-04T01:08:56.564Z,9.18
2022-09-04T01:14:13.337Z,9.50
2022-09-04T01:16:47.757Z,8.73
2022-09-04T01:19:31.367Z,8.40
2022-09-04T01:22:14.513Z,8.45
2022-09-04T01:25:05.898Z,8.82
2022-09-04T01:27:43.491Z,8.80
2022-09-04T01:30:14.798Z,8.75
2022-09-04T01:32:52.509Z,8.23
2022-09-04T01:35:32.061Z,9.10
2022-09-04T01:38:10.666Z,9.02
2022-09-04T01:40:45.579Z,9.30
2022-09-04T01:43:18.712Z,8.90
2022-09-04T01:46:06.849Z,9.75
2022-09-04T01:48:43.494Z,9.68
2022-09-04T01:51:21.983Z,9.32
2022-09-04T01:54:00.558Z,9.18
2022-09-04T01:56:38.225Z,11.30
2022-09-04T01:59:12.963Z,9.30
2022-09-04T02:01:51.027Z,9.93
2022-09-04T02:04:27.716Z,9.88
2022-09-04T02:07:11.438Z,8.68
2022-09-04T02:09:50.130Z,9.25
2022-09-04T02:12:36.128Z,9.50
2022-09-04T02:15:13.997Z,9.57
2022-09-04T02:17:49.083Z,9.30
2022-09-04T02:20:26.294Z,9.75
2022-09-04T02:23:11.932Z,8.98
2022-09-04T02:25:49.683Z,9.93
2022-09-04T02:28:30.910Z,9.77
2022-09-04T02:31:06.983Z,9.55
2022-09-04T02:33:41.137Z,9.52
2022-09-04T02:36:16.846Z,9.27
2022-09-04T02:38:57.256Z,10.50
2022-09-04T02:41:38.977Z,9.20
2022-09-04T02:44:28.775Z,9.60
2022-09-04T02:47:12.942Z,9.35
2022-09-04T02:49:52.700Z,9.13
2022-09-04T02:52:37.444Z,10.43
2022-09-04T02:55:18.616Z,11.10
2022-09-04T02:57:58.944Z,9.88
2022-09-04T03:00:40.173Z,9.65
2022-09-04T03:03:14.303Z,10.10
2022-09-04T03:05:48.154Z,9.65
2022-09-04T03:08:20.401Z,10.02
2022-09-04T03:10:56.493Z,9.75
2022-09-04T03:13:32.023Z,10.35
2022-09-04T03:16:11.423Z,9.93
2022-09-04T03:19:03.106Z,10.05
2022-09-04T03:21:37.310Z,9.63
2022-09-04T03:24:12.380Z,9.93
2022-09-04T03:26:43.370Z,10.00
2022-09-04T03:29:24.819Z,9.85
2022-09-04T03:32:15.551Z,8.88
2022-09-04T03:34:52.459Z,9.27
2022-09-04T03:37:45.698Z,9.52
2022-09-04T03:43:17.577Z,8.80
2022-09-04T03:45:55.416Z,9.32
2022-09-04T03:48:39.663Z,9.90
2022-09-04T03:51:25.840Z,10.23
2022-09-04T03:54:09.044Z,9.75
2022-09-04T03:56:55.614Z,9.63
2022-09-04T03:59:41.260Z,10.77
2022-09-04T04:02:20.314Z,10.00
2022-09-04T04:05:27.768Z,10.32
2022-09-04T04:08:27.941Z,10.20
2022-09-04T04:11:05.401Z,9.68
2022-09-04T04:14:08.262Z,10.60
2022-09-04T04:16:56.366Z,9.38
2022-09-04T04:19:48.400Z,10.15
2022-09-04T04:22:35.380Z,10.00
2022-09-04T04:25:35.873Z,10.15
2022-09-04T04:28:20.235Z,10.00
2022-09-04T04:30:52.651Z,8.48
2022-09-04T04:33:42.598Z,8.15
2022-09-04T04:36:22.773Z,10.02
2022-09-04T04:39:09.970Z,10.13
2022-09-04T04:42:07.892Z,9.75
2022-09-04T04:45:18.418Z,9.32
2022-09-04T04:48:11.493Z,7.90
2022-09-04T04:53:18.062Z,7.75
2022-09-04T04:55:51.731Z,7.90
2022-09-04T04:58:30.926Z,7.68
2022-09-04T05:01:07.312Z,7.20
2022-09-04T05:03:47.845Z,7.00
2022-09-04T05:06:21.956Z,6.00
2022-09-04T05:08:59.084Z,6.47
2022-09-04T05:11:40.182Z,6.95
2022-09-04T05:14:26.447Z,6.32
2022-09-04T05:17:00.875Z,7.75
2022-09-04T05:19:33.851Z,6.50
2022-09-04T05:22:10.926Z,6.55
2022-09-04T05:24:50.302Z,6.85
2022-09-04T05:27:47.294Z,6.25
2022-09-04T05:30:22.735Z,6.93
2022-09-04T05:32:59.212Z,6.53
2022-09-04T05:35:38.327Z,6.18
2022-09-04T05:38:12.928Z,5.65
2022-09-04T05:40:59.131Z,6.47
2022-09-04T05:43:38.154Z,5.93
2022-09-04T05:46:18.375Z,5.70
2022-09-04T05:48:59.291Z,5.95
2022-09-04T05:52:01.935Z,5.43
2022-09-04T05:55:05.456Z,5.90
2022-09-04T05:57:49.455Z,5.47
2022-09-04T06:00:19.338Z,7.03
2022-09-04T06:03:27.832Z,5.60
2022-09-04T06:06:15.419Z,5.38
2022-09-04T06:09:03.469Z,5.68
2022-09-04T06:11:42.348Z,5.40
2022-09-04T06:14:34.594Z,6.22
2022-09-04T06:17:17.297Z,6.13
2022-09-04T06:20:04.216Z,5.78
2022-09-04T06:23:02.787Z,6.13
2022-09-04T06:25:58.126Z,6.07
2022-09-04T06:28:51.370Z,5.95
2022-09-04T06:31:46.744Z,5.85
2022-09-04T06:34:24.556Z,5.22
2022-09-04T06:37:14.625Z,5.53
2022-09-04T06:39:57.440Z,5.40
2022-09-04T06:42:39.233Z,5.10
2022-09-04T06:45:20.714Z,5.60
2022-09-04T06:48:06.422Z,5.13
2022-09-04T06:50:47.338Z,5.88
2022-09-04T06:53:31.130Z,5.68
2022-09-04T06:56:14.823Z,5.72
2022-09-04T06:59:09.447Z,5.90
2022-09-04T07:01:47.650Z,5.95
2022-09-04T07:04:28.547Z,5.72
2022-09-04T07:07:11.526Z,5.35
2022-09-04T07:09:47.992Z,5.47
2022-09-04T07:12:34.211Z,5.05
2022-09-04T07:15:36.976Z,6.57
2022-09-04T07:18:17.580Z,5.57
2022-09-04T07:21:03.185Z,6.20
2022-09-04T07:23:45.184Z,6.07
2022-09-04T07:26:28.642Z,5.60
2022-09-04T07:29:10.600Z,5.55
2022-09-04T07:31:44.425Z,5.13
2022-09-04T07:34:20.167Z,6.40
2022-09-04T07:36:56.502Z,5.85
2022-09-04T07:39:33.921Z,6.00
2022-09-04T07:42:12.894Z,5.38
2022-09-04T07:44:49.042Z,6.53
2022-09-04T07:47:23.151Z,5.43
2022-09-04T07:50:04.866Z,5.18
2022-09-04T07:52:55.300Z,5.68
2022-09-04T07:55:37.272Z,5.20
2022-09-04T07:58:44.363Z,5.00
2022-09-04T08:01:40.101Z,5.40
2022-09-04T08:04:27.091Z,5.90
2022-09-04T08:07:00.042Z,5.55
2022-09-04T08:10:06.309Z,5.63
2022-09-04T08:12:58.044Z,5.00
2022-09-04T08:15:40.967Z,5.57
2022-09-04T08:18:30.476Z,4.57
2022-09-04T08:21:13.270Z,4.53
2022-09-04T08:26:40.998Z,5.90
2022-09-04T08:29:24.682Z,4.97
2022-09-04T08:32:13.960Z,4.88
2022-09-04T08:35:06.756Z,6.00
2022-09-04T08:37:48.572Z,5.85
2022-09-04T08:40:41.536Z,5.33
2022-09-04T08:43:30.104Z,5.10
2022-09-04T08:46:39.377Z,5.63
2022-09-04T08:49:40.251Z,5.43
2022-09-04T08:52:44.523Z,5.65
2022-09-04T08:55:38.597Z,5.78
2022-09-04T08:58:37.439Z,5.38
2022-09-04T09:01:35.765Z,6.03
2022-09-04T09:04:51.254Z,5.18
2022-09-04T09:08:01.135Z,5.63
2022-09-04T09:11:00.427Z,6.57
2022-09-04T09:14:12.404Z,6.70
2022-09-04T09:16:55.170Z,6.03
2022-09-04T09:19:44.620Z,5.72
2022-09-04T09:22:30.405Z,5.53
2022-09-04T09:25:20.886Z,6.10
2022-09-04T09:28:37.485Z,6.60
2022-09-04T09:31:53.278Z,5.55
2022-09-04T09:34:48.466Z,6.10
2022-09-04T09:37:43.609Z,5.97
2022-09-04T09:40:31.914Z,5.30
2022-09-04T09:43:42.256Z,5.25
2022-09-04T09:46:32.532Z,5.22
2022-09-04T09:49:37.781Z,5.00
2022-09-04T09:52:34.050Z,4.93
2022-09-04T09:55:41.844Z,5.32
2022-09-04T09:58:25.719Z,4.15
2022-09-04T10:01:09.500Z,5.90
2022-09-04T10:04:10.827Z,4.82
2022-09-04T10:07:20.105Z,5.03
2022-09-04T10:10:20.768Z,5.22
2022-09-04T10:13:22.085Z,5.40
2022-09-04T10:16:19.349Z,5.32
2022-09-04T10:19:17.984Z,5.93
2022-09-04T10:22:22.876Z,5.03
2022-09-04T10:25:16.873Z,4.63
2022-09-04T10:28:20.373Z,4.85
2022-09-04T10:31:17.378Z,5.50
2022-09-04T10:33:58.202Z,5.18
2022-09-04T10:36:38.371Z,5.45
2022-09-04T10:39:38.344Z,5.72
2022-09-04T10:42:17.819Z,5.40
2022-09-04T10:44:58.870Z,5.45
2022-09-04T10:47:53.818Z,5.85
2022-09-04T10:50:36.866Z,5.95
2022-09-04T10:53:31.418Z,5.07
2022-09-04T10:56:22.235Z,5.32
2022-09-04T10:59:21.400Z,5.03
2022-09-04T11:02:12.690Z,6.03
2022-09-04T11:05:12.777Z,5.53
2022-09-04T11:08:00.267Z,5.53
2022-09-04T11:10:37.755Z,5.38
2022-09-04T11:13:51.427Z,5.13
2022-09-04T11:16:35.292Z,5.15
2022-09-04T11:19:32.384Z,4.72
2022-09-04T11:22:47.189Z,6.07
2022-09-04T11:25:49.455Z,5.85
2022-09-04T11:28:51.841Z,5.20
2022-09-04T11:31:35.446Z,4.32
2022-09-04T11:34:35.238Z,5.20
2022-09-04T11:37:35.283Z,5.30
2022-09-04T11:40:36.043Z,5.53
2022-09-04T11:43:23.327Z,6.10
2022-09-04T11:46:18.052Z,4.43
2022-09-04T11:49:21.696Z,5.20
2022-09-04T11:52:14.825Z,6.05
2022-09-04T11:55:06.756Z,5.00
2022-09-04T11:57:49.178Z,5.43
2022-09-04T12:00:18.291Z,5.72
2022-09-04T12:03:19.298Z,4.90
2022-09-04T12:06:04.624Z,4.97
2022-09-04T12:08:49.137Z,5.20
2022-09-04T12:11:42.895Z,5.70
2022-09-04T12:14:24.861Z,6.43
2022-09-04T12:17:37.559Z,4.53
2022-09-04T12:20:35.329Z,5.20
2022-09-04T12:23:32.625Z,4.90
2022-09-04T12:26:51.205Z,5.47
2022-09-04T12:29:52.958Z,5.07
2022-09-04T12:32:48.451Z,5.93
2022-09-04T12:35:54.622Z,5.50
2022-09-04T12:38:52.772Z,5.03
2022-09-04T12:41:25.928Z,5.22
2022-09-04T12:44:05.980Z,4.80
2022-09-04T12:46:52.302Z,4.65
2022-09-04T12:49:35.603Z,5.55
2022-09-04T12:52:17.585Z,4.97
2022-09-04T12:54:55.945Z,4.63
2022-09-04T12:57:37.156Z,4.60
2022-09-04T13:00:10.889Z,4.13
2022-09-04T13:02:53.574Z,5.03
2022-09-04T13:05:53.027Z,4.40
2022-09-04T13:08:33.515Z,4.72
2022-09-04T13:11:20.118Z,4.93
2022-09-04T13:13:59.781Z,4.43
2022-09-04T13:16:35.288Z,4.45
2022-09-04T13:19:12.771Z,4.55
2022-09-04T13:22:05.666Z,4.15
2022-09-04T13:24:51.314Z,4.55
2022-09-04T13:27:34.859Z,7.72
2022-09-04T13:30:08.680Z,4.20
2022-09-04T13:32:52.366Z,4.03
2022-09-04T13:35:36.459Z,4.20
2022-09-04T13:38:23.301Z,3.90
2022-09-04T13:41:12.584Z,4.50
2022-09-04T13:44:11.910Z,4.60
2022-09-04T13:46:45.361Z,4.07
2022-09-04T13:49:17.519Z,4.43
2022-09-04T13:51:51.804Z,4.40
2022-09-04T13:54:25.878Z,4.35
2022-09-04T13:56:59.854Z,4.18
2022-09-04T13:59:28.801Z,4.90
2022-09-04T14:02:04.736Z,4.43
2022-09-04T14:04:40.168Z,4.78
2022-09-04T14:07:14.775Z,4.97
2022-09-04T14:09:46.529Z,5.00
2022-09-04T14:12:36.888Z,4.72
2022-09-04T14:15:31.485Z,4.22
2022-09-04T14:18:14.238Z,4.57
2022-09-04T14:20:58.207Z,4.57
2022-09-04T14:23:43.969Z,4.03
2022-09-04T14:26:24.968Z,4.55
2022-09-04T14:28:58.515Z,4.45
2022-09-04T14:31:35.356Z,4.45
2022-09-04T14:34:19.209Z,4.70
2022-09-04T14:36:57.303Z,4.75
2022-09-04T14:39:33.304Z,4.28
2022-09-04T14:42:36.276Z,4.35
2022-09-04T14:45:19.386Z,4.00
2022-09-04T14:47:53.909Z,4.68
2022-09-04T14:50:28.436Z,4.43
2022-09-04T14:53:02.094Z,4.78
2022-09-04T14:55:33.339Z,5.07
2022-09-04T14:58:10.678Z,4.85
2022-09-04T15:01:00.175Z,5.10
2022-09-04T15:03:32.051Z,4.63
2022-09-04T15:06:08.449Z,4.82
2022-09-04T15:08:40.810Z,4.75
2022-09-04T15:11:13.339Z,4.72
2022-09-04T15:16:29.556Z,5.38
2022-09-04T15:19:03.734Z,4.63
2022-09-04T15:21:39.987Z,4.65
2022-09-04T15:24:17.872Z,4.40
2022-09-04T15:26:55.757Z,5.75
2022-09-04T15:29:29.716Z,5.30
2022-09-04T15:32:02.075Z,4.65
2022-09-04T15:37:12.346Z,4.93
2022-09-04T15:39:50.626Z,4.70
2022-09-04T15:42:36.677Z,4.70
2022-09-04T15:45:16.907Z,5.30
2022-09-04T15:48:03.438Z,4.95
2022-09-04T15:50:35.533Z,4.47
2022-09-04T15:53:15.373Z,4.25
2022-09-04T15:55:48.546Z,4.53
2022-09-04T15:58:21.380Z,4.20
2022-09-04T16:01:12.234Z,4.70
2022-09-04T16:03:56.107Z,4.80
2022-09-04T16:06:30.242Z,4.90
2022-09-04T16:09:03.304Z,4.93
2022-09-04T16:11:38.627Z,5.30
2022-09-04T16:14:12.012Z,4.70
2022-09-04T16:16:46.756Z,4.93
2022-09-04T16:19:23.314Z,5.13
2022-09-04T16:22:00.200Z,4.90
2022-09-04T16:24:35.112Z,4.68
2022-09-04T16:27:10.172Z,5.00
2022-09-04T16:29:42.409Z,5.00
2022-09-04T16:32:13.868Z,5.10
2022-09-04T16:34:50.616Z,4.83
2022-09-04T16:37:26.989Z,4.75
2022-09-04T16:40:09.691Z,5.03
2022-09-04T16:42:45.546Z,5.68
2022-09-04T16:45:18.197Z,5.20
2022-09-04T16:47:54.660Z,4.95
2022-09-04T16:50:29.249Z,5.07
2022-09-04T16:53:13.299Z,4.95
2022-09-04T16:55:48.901Z,5.40
2022-09-04T16:58:35.610Z,5.70
2022-09-04T17:01:15.745Z,5.38
2022-09-04T17:04:13.241Z,5.07
2022-09-04T17:06:54.422Z,5.30
2022-09-04T17:09:29.216Z,5.40
2022-09-04T17:12:03.929Z,5.43
2022-09-04T17:14:38.191Z,4.70
2022-09-04T17:17:12.483Z,5.40
2022-09-04T17:20:05.395Z,5.47
2022-09-04T17:28:26.232Z,5.57
2022-09-04T17:28:58.468Z,5.10
2022-09-04T17:29:29.601Z,5.47
2022-09-04T17:31:54.430Z,5.15
2022-09-04T17:37:42.352Z,5.15
2022-09-04T17:40:06.290Z,5.55
2022-09-04T17:41:38.338Z,5.70
2022-09-04T17:43:37.342Z,5.20
2022-09-04T17:46:26.672Z,5.07
2022-09-04T17:48:57.498Z,5.57
2022-09-04T17:51:27.521Z,5.38
2022-09-04T17:54:00.043Z,5.13
2022-09-04T17:59:08.359Z,5.43
2022-09-04T18:01:44.506Z,5.30
2022-09-04T18:04:26.501Z,6.93
2022-09-04T18:07:56.867Z,5.93
2022-09-04T18:10:09.959Z,5.32
2022-09-04T18:12:45.857Z,5.80
2022-09-04T18:15:34.492Z,5.50
2022-09-04T18:18:14.232Z,5.80
2022-09-04T18:20:52.024Z,5.10
2022-09-04T18:23:53.438Z,6.10
2022-09-04T18:26:40.350Z,5.20
2022-09-04T18:31:12.704Z,5.32
2022-09-04T18:37:07.618Z,5.22
2022-09-04T18:37:22.076Z,5.20
2022-09-04T18:38:20.722Z,5.00
2022-09-04T18:46:15.088Z,5.80
2022-09-04T18:50:22.789Z,7.05
2022-09-04T18:50:46.761Z,8.93
2022-09-04T18:50:51.443Z,8.25
2022-09-04T18:52:22.631Z,7.78
2022-09-04T18:55:02.157Z,7.05
2022-09-04T18:57:35.302Z,6.15
2022-09-04T19:00:09.633Z,5.55
2022-09-04T19:02:53.987Z,5.80
2022-09-04T19:05:25.433Z,5.38
2022-09-04T19:07:59.485Z,6.03
2022-09-04T19:10:32.439Z,4.90
2022-09-04T19:13:10.476Z,5.22
2022-09-04T19:15:57.712Z,5.15
2022-09-04T19:18:45.636Z,5.40
2022-09-04T19:21:21.238Z,6.72
2022-09-04T19:23:59.760Z,4.88
2022-09-04T19:26:40.841Z,5.30
2022-09-04T19:29:15.579Z,5.20
2022-09-04T19:31:51.476Z,5.53
2022-09-04T19:34:29.130Z,4.90
2022-09-04T19:37:20.395Z,5.05
2022-09-04T19:44:22.909Z,4.20
2022-09-04T19:46:04.887Z,5.15
2022-09-04T19:46:12.082Z,5.97
2022-09-04T19:49:21.478Z,5.03
2022-09-04T19:53:34.659Z,5.97
2022-09-04T19:54:36.746Z,6.75
2022-09-04T19:57:33.384Z,7.05
2022-09-04T20:00:36.431Z,6.72
2022-09-04T20:03:02.269Z,7.63
2022-09-04T20:05:32.403Z,8.15
2022-09-04T20:08:07.627Z,6.00
2022-09-04T20:10:43.095Z,5.78
2022-09-04T20:13:21.586Z,5.00
2022-09-04T20:16:00.740Z,6.32
2022-09-04T20:18:34.368Z,5.18
2022-09-04T20:21:13.850Z,6.40
2022-09-04T20:23:47.423Z,7.50
2022-09-04T20:26:21.955Z,6.93
2022-09-04T20:29:14.094Z,8.20
2022-09-04T20:31:58.661Z,6.60
2022-09-04T20:34:32.983Z,7.63
2022-09-04T20:37:29.468Z,7.20
2022-09-04T20:40:12.865Z,6.57
2022-09-04T20:42:51.467Z,7.43
2022-09-04T20:48:45.647Z,8.38
2022-09-04T20:52:48.975Z,8.20
2022-09-04T20:52:50.479Z,9.10
2022-09-04T20:54:28.366Z,9.32
2022-09-04T21:01:29.032Z,9.05
2022-09-04T21:03:09.516Z,8.48
2022-09-04T21:03:19.608Z,8.25
2022-09-04T21:06:26.128Z,8.00
2022-09-04T21:09:04.031Z,7.63
2022-09-04T21:11:41.309Z,7.78
2022-09-04T21:14:16.213Z,7.95
2022-09-04T21:17:33.569Z,8.07
2022-09-04T21:20:36.192Z,7.85
2022-09-04T21:23:53.006Z,7.28
2022-09-04T21:26:49.901Z,6.18
2022-09-04T21:29:33.834Z,7.95
2022-09-04T21:32:23.319Z,7.93
2022-09-04T21:35:03.136Z,7.82
2022-09-04T21:37:41.910Z,6.68
2022-09-04T21:40:51.434Z,6.20
2022-09-04T21:44:02.594Z,5.63
2022-09-04T21:46:59.083Z,7.00
2022-09-04T21:49:57.072Z,6.70
2022-09-04T21:52:56.066Z,7.30
2022-09-04T22:00:06.096Z,7.20
2022-09-04T22:02:37.962Z,5.97
2022-09-04T22:02:42.421Z,6.00
2022-09-04T22:05:09.755Z,6.65
2022-09-04T22:10:21.634Z,7.55
2022-09-04T22:13:30.493Z,7.78
2022-09-04T22:13:51.413Z,8.38
2022-09-04T22:16:42.568Z,7.95
2022-09-04T22:19:38.886Z,8.82
2022-09-04T22:22:25.726Z,8.82
2022-09-04T22:25:28.527Z,8.02
2022-09-04T22:28:41.306Z,7.68
2022-09-04T22:31:32.633Z,9.15
2022-09-04T22:34:23.291Z,8.85
2022-09-04T22:37:16.261Z,9.70
2022-09-04T22:42:51.280Z,10.30
2022-09-04T22:46:08.397Z,10.07
2022-09-04T22:49:24.136Z,8.85
2022-09-04T22:52:20.167Z,9.40
2022-09-04T22:55:36.529Z,7.88
2022-09-04T22:58:20.601Z,8.30
2022-09-04T23:01:17.502Z,7.70
2022-09-04T23:04:02.116Z,7.80
2022-09-04T23:10:43.488Z,7.82
2022-09-04T23:13:52.403Z,8.30
2022-09-04T23:14:05.395Z,6.72
2022-09-04T23:16:28.245Z,5.93
2022-09-04T23:20:48.807Z,6.10
2022-09-04T23:26:33.208Z,6.40
2022-09-04T23:28:27.803Z,6.80
2022-09-04T23:31:19.835Z,7.43
2022-09-04T23:34:31.145Z,7.10
2022-09-04T23:37:21.001Z,7.38
2022-09-04T23:40:03.427Z,7.22
2022-09-04T23:43:07.725Z,6.85
2022-09-04T23:46:02.013Z,7.50
2022-09-04T23:48:49.736Z,7.63
2022-09-04T23:51:27.906Z,6.38
2022-09-04T23:54:25.320Z,6.25
2022-09-04T23:57:01.037Z,8.27
2022-09-04T23:59:45.350Z,7.07
